Time;durP1;ratioP1;P1;durP2;ratioP2;P2;SDS_P1;SDS_P2;PMS_P1;PMS_P2;Temp;Humidity;BMP_temperature;BMP_pressure;BME280_temperature;BME280_humidity;BME280_pressure;Samples;Min_cycle;Max_cycle;Signal;HPM_P1;HPM_P2
2021/06/30 00:01:30;;;;;;;2.43;1.50;;;14.90;99.90;;;;;;5077368;28;20176;-82
2021/06/30 00:03:56;;;;;;;1.20;1.10;;;14.80;99.90;;;;;;5079687;28;20173;-82
2021/06/30 00:06:22;;;;;;;4.23;1.40;;;14.80;99.90;;;;;;5078000;28;20192;-82
2021/06/30 00:08:49;;;;;;;2.17;1.60;;;14.70;99.90;;;;;;5079160;28;20205;-82
2021/06/30 00:11:15;;;;;;;1.93;1.50;;;14.70;99.90;;;;;;5077529;28;20185;-82
2021/06/30 00:13:42;;;;;;;4.13;1.60;;;14.80;99.90;;;;;;5077107;28;20650;-83
2021/06/30 00:16:08;;;;;;;2.60;1.60;;;14.80;99.90;;;;;;5077083;28;20208;-82
2021/06/30 00:18:34;;;;;;;4.50;1.50;;;14.80;99.90;;;;;;5078870;28;20539;-83
2021/06/30 00:21:00;;;;;;;2.40;1.60;;;14.80;99.90;;;;;;5078945;28;20222;-83
2021/06/30 00:23:26;;;;;;;1.70;1.60;;;14.80;99.90;;;;;;5077524;28;20260;-82
2021/06/30 00:25:52;;;;;;;1.30;1.20;;;14.80;99.90;;;;;;5078394;28;20208;-82
2021/06/30 00:28:18;;;;;;;1.40;1.30;;;14.70;99.90;;;;;;5077200;28;20266;-82
2021/06/30 00:30:43;;;;;;;1.70;1.40;;;14.70;99.90;;;;;;5078538;28;20183;-82
2021/06/30 00:33:09;;;;;;;2.70;1.20;;;14.70;99.90;;;;;;5079016;28;20535;-82
2021/06/30 00:35:35;;;;;;;1.60;1.10;;;14.70;99.90;;;;;;5076971;28;20597;-82
2021/06/30 00:38:00;;;;;;;1.37;1.27;;;14.60;99.90;;;;;;5077385;28;20279;-82
2021/06/30 00:40:26;;;;;;;4.23;1.40;;;14.60;99.90;;;;;;5077627;28;20170;-82
2021/06/30 00:42:53;;;;;;;2.03;1.30;;;14.60;99.90;;;;;;5078288;28;20255;-82
2021/06/30 00:45:20;;;;;;;2.93;1.30;;;14.50;99.90;;;;;;5077423;28;20181;-82
2021/06/30 00:47:46;;;;;;;3.20;1.27;;;14.50;99.90;;;;;;5079469;28;20266;-83
2021/06/30 00:50:16;;;;;;;1.87;1.17;;;14.40;99.90;;;;;;5077639;28;20176;-83
2021/06/30 00:52:42;;;;;;;3.73;1.23;;;14.30;99.90;;;;;;5078389;28;20172;-83
2021/06/30 00:55:08;;;;;;;3.57;1.30;;;14.30;99.90;;;;;;5078437;28;20249;-83
2021/06/30 00:57:35;;;;;;;2.50;1.23;;;14.30;99.90;;;;;;5078559;28;20259;-83
2021/06/30 01:00:01;;;;;;;1.27;1.00;;;14.30;99.90;;;;;;5078656;28;20181;-83
2021/06/30 01:02:26;;;;;;;0.97;0.90;;;14.20;99.90;;;;;;5079970;28;20691;-83
2021/06/30 01:04:52;;;;;;;4.10;1.27;;;14.10;99.90;;;;;;5082752;28;20169;-83
2021/06/30 01:07:18;;;;;;;1.87;0.90;;;14.20;99.90;;;;;;5084258;28;20181;-83
2021/06/30 01:09:44;;;;;;;3.30;1.30;;;14.10;99.90;;;;;;5082628;28;20193;-83
2021/06/30 01:12:10;;;;;;;1.17;1.03;;;14.10;99.90;;;;;;5084876;28;20203;-83
2021/06/30 01:14:36;;;;;;;2.00;1.07;;;14.00;99.90;;;;;;5079209;28;20176;-83
2021/06/30 01:17:05;;;;;;;1.23;1.00;;;13.90;99.90;;;;;;5077948;28;20287;-83
2021/06/30 01:19:34;;;;;;;1.43;1.10;;;13.80;99.90;;;;;;5081109;28;20193;-83
2021/06/30 01:22:00;;;;;;;1.27;1.00;;;13.80;99.90;;;;;;5081557;28;20173;-83
2021/06/30 01:24:26;;;;;;;1.30;1.20;;;13.70;99.90;;;;;;5083183;28;20711;-83
2021/06/30 01:26:51;;;;;;;0.90;0.90;;;13.50;99.90;;;;;;5082582;28;20533;-83
2021/06/30 01:29:21;;;;;;;2.17;1.03;;;13.40;99.90;;;;;;5081128;28;20200;-84
2021/06/30 01:31:49;;;;;;;2.80;1.10;;;13.40;99.90;;;;;;5080357;28;20192;-83
2021/06/30 01:34:15;;;;;;;2.40;1.20;;;13.30;99.90;;;;;;5081559;28;20583;-83
2021/06/30 01:36:48;;;;;;;2.17;1.23;;;13.30;99.90;;;;;;5080640;28;20565;-83
2021/06/30 01:39:14;;;;;;;3.40;1.40;;;13.30;99.90;;;;;;5079846;28;20219;-83
2021/06/30 01:41:41;;;;;;;1.80;1.00;;;13.20;99.90;;;;;;5079309;28;20183;-83
2021/06/30 01:44:07;;;;;;;1.37;0.93;;;13.00;99.90;;;;;;5077773;28;20561;-83
2021/06/30 01:46:33;;;;;;;1.10;0.70;;;12.90;99.90;;;;;;5089613;28;20216;-84
2021/06/30 01:48:59;;;;;;;0.90;0.70;;;12.70;99.90;;;;;;5083789;28;20260;-85
2021/06/30 01:51:25;;;;;;;0.60;0.60;;;12.50;99.90;;;;;;5084501;28;20516;-85
2021/06/30 01:53:56;;;;;;;0.50;0.50;;;12.40;99.90;;;;;;5083081;28;20184;-85
2021/06/30 01:56:26;;;;;;;0.30;0.30;;;12.40;99.90;;;;;;5083024;28;20226;-85
2021/06/30 01:58:58;;;;;;;0.50;0.30;;;12.30;99.90;;;;;;5084617;28;20192;-84
2021/06/30 02:01:24;;;;;;;0.20;0.20;;;12.20;99.90;;;;;;5081781;28;20177;-84
2021/06/30 02:03:49;;;;;;;2.20;0.40;;;12.00;99.90;;;;;;5083300;28;20254;-84
2021/06/30 02:06:15;;;;;;;0.63;0.30;;;11.80;99.90;;;;;;5083076;28;20214;-84
2021/06/30 02:08:40;;;;;;;0.30;0.30;;;11.80;99.90;;;;;;5084266;28;20204;-84
2021/06/30 02:11:06;;;;;;;0.40;0.40;;;11.80;99.90;;;;;;5081912;28;20181;-84
2021/06/30 02:13:32;;;;;;;0.30;0.30;;;11.80;99.90;;;;;;5080799;28;20184;-84
2021/06/30 02:15:58;;;;;;;0.27;0.27;;;11.70;99.90;;;;;;5080876;28;20234;-84
2021/06/30 02:18:24;;;;;;;0.30;0.30;;;11.60;99.90;;;;;;5081862;28;20201;-83
2021/06/30 02:20:50;;;;;;;0.80;0.40;;;11.70;99.90;;;;;;5082695;28;20249;-84
2021/06/30 02:23:15;;;;;;;0.43;0.40;;;11.70;99.90;;;;;;5082406;28;20181;-83
2021/06/30 02:25:41;;;;;;;0.30;0.30;;;11.60;99.90;;;;;;5083690;28;20200;-84
2021/06/30 02:28:06;;;;;;;0.40;0.40;;;11.60;99.90;;;;;;5082871;28;20220;-84
2021/06/30 02:30:33;;;;;;;2.00;0.33;;;11.60;99.90;;;;;;5083115;28;20535;-83
2021/06/30 02:33:01;;;;;;;0.30;0.30;;;11.60;99.90;;;;;;5088464;28;20191;-83
2021/06/30 02:35:27;;;;;;;0.27;0.27;;;11.60;99.90;;;;;;5081542;28;20191;-84
2021/06/30 02:37:55;;;;;;;0.80;0.40;;;11.60;99.90;;;;;;5083490;28;20194;-83
2021/06/30 02:40:23;;;;;;;0.87;0.30;;;11.50;99.90;;;;;;5083205;28;20175;-84
2021/06/30 02:42:50;;;;;;;0.57;0.30;;;11.50;99.90;;;;;;5081846;28;20184;-83
2021/06/30 02:45:18;;;;;;;0.53;0.40;;;11.50;99.90;;;;;;5084310;28;20172;-83
2021/06/30 02:47:45;;;;;;;0.20;0.20;;;11.50;99.90;;;;;;5085542;28;20193;-83
2021/06/30 02:50:13;;;;;;;0.30;0.30;;;11.50;99.90;;;;;;5085266;28;20173;-83
2021/06/30 02:52:39;;;;;;;0.97;0.30;;;11.50;99.90;;;;;;5082295;28;20210;-83
2021/06/30 02:55:09;;;;;;;0.40;0.40;;;11.60;99.90;;;;;;5082026;28;20611;-83
2021/06/30 02:57:35;;;;;;;0.30;0.30;;;11.60;99.90;;;;;;5080657;28;20268;-83
2021/06/30 03:00:06;;;;;;;0.30;0.30;;;11.60;99.90;;;;;;5080965;28;20174;-84
2021/06/30 03:02:32;;;;;;;0.33;0.30;;;11.60;99.90;;;;;;5082484;28;20184;-83
2021/06/30 03:04:58;;;;;;;0.80;0.40;;;11.50;99.90;;;;;;5082025;28;20180;-84
2021/06/30 03:07:23;;;;;;;0.67;0.57;;;11.60;99.90;;;;;;5082372;28;20601;-84
2021/06/30 03:09:49;;;;;;;0.87;0.60;;;11.60;99.90;;;;;;5081344;28;20511;-84
2021/06/30 03:12:15;;;;;;;0.50;0.50;;;11.60;99.90;;;;;;5081816;28;20208;-84
2021/06/30 03:14:40;;;;;;;2.20;0.70;;;11.60;99.90;;;;;;5081998;28;20177;-84
2021/06/30 03:17:06;;;;;;;0.40;0.40;;;11.50;99.90;;;;;;5082683;28;20178;-84
2021/06/30 03:19:32;;;;;;;2.20;0.80;;;11.60;99.90;;;;;;5081759;28;20716;-84
2021/06/30 03:21:57;;;;;;;0.50;0.50;;;11.60;99.90;;;;;;5082507;28;20182;-83
2021/06/30 03:24:23;;;;;;;0.60;0.50;;;11.60;99.90;;;;;;5081685;28;20192;-84
2021/06/30 03:26:49;;;;;;;0.80;0.50;;;11.60;99.90;;;;;;5081541;28;20235;-84
2021/06/30 03:29:14;;;;;;;0.30;0.30;;;11.60;99.90;;;;;;5081902;28;20662;-84
2021/06/30 03:31:40;;;;;;;1.13;0.40;;;11.60;99.90;;;;;;5081413;28;20180;-84
2021/06/30 03:34:06;;;;;;;2.27;0.70;;;11.70;99.90;;;;;;5080702;28;20198;-84
2021/06/30 03:36:31;;;;;;;1.13;0.47;;;11.60;99.90;;;;;;5079265;28;20260;-84
2021/06/30 03:38:57;;;;;;;0.63;0.50;;;11.60;99.90;;;;;;5077736;28;20228;-84
2021/06/30 03:41:23;;;;;;;0.90;0.67;;;11.60;99.90;;;;;;5085551;28;20181;-84
2021/06/30 03:43:49;;;;;;;0.50;0.50;;;11.70;99.90;;;;;;5084337;28;20211;-85
2021/06/30 03:46:15;;;;;;;0.60;0.50;;;11.70;99.90;;;;;;5082690;28;20207;-84
2021/06/30 03:48:40;;;;;;;0.87;0.60;;;11.70;99.90;;;;;;5085546;28;20204;-85
2021/06/30 03:51:06;;;;;;;0.40;0.40;;;11.70;99.90;;;;;;5084324;28;20181;-85
2021/06/30 03:53:32;;;;;;;1.10;0.67;;;11.70;99.90;;;;;;5085302;28;20218;-84
2021/06/30 03:55:57;;;;;;;0.57;0.40;;;11.70;99.90;;;;;;5084572;28;20658;-84
2021/06/30 03:58:24;;;;;;;0.60;0.50;;;11.70;99.90;;;;;;5076874;28;20694;-84
2021/06/30 04:00:49;;;;;;;0.40;0.40;;;11.80;99.90;;;;;;5082401;28;20252;-85
2021/06/30 04:03:18;;;;;;;0.73;0.43;;;11.70;99.90;;;;;;5083950;28;20176;-85
2021/06/30 04:05:44;;;;;;;1.57;0.70;;;11.70;99.90;;;;;;5082652;28;20227;-84
2021/06/30 04:08:11;;;;;;;0.47;0.47;;;11.70;99.90;;;;;;5082579;28;20197;-84
2021/06/30 04:10:36;;;;;;;0.70;0.57;;;11.60;99.90;;;;;;5080853;28;20176;-84
2021/06/30 04:13:03;;;;;;;1.03;0.30;;;11.60;99.90;;;;;;5077259;28;20178;-84
2021/06/30 04:15:29;;;;;;;2.70;0.70;;;11.60;99.90;;;;;;5081238;28;20189;-84
2021/06/30 04:17:57;;;;;;;0.50;0.40;;;11.70;99.90;;;;;;5083015;28;20541;-84
2021/06/30 04:20:23;;;;;;;0.97;0.50;;;11.70;99.90;;;;;;5082118;28;20172;-84
2021/06/30 04:22:49;;;;;;;0.60;0.50;;;11.80;99.90;;;;;;5084315;28;20216;-84
2021/06/30 04:25:15;;;;;;;0.60;0.43;;;11.70;99.90;;;;;;5084356;28;20174;-84
2021/06/30 04:27:40;;;;;;;0.80;0.40;;;11.70;99.90;;;;;;5084364;28;20229;-84
2021/06/30 04:30:08;;;;;;;1.23;0.60;;;11.70;99.90;;;;;;5083303;28;20176;-84
2021/06/30 04:32:34;;;;;;;0.50;0.50;;;11.80;99.90;;;;;;5085242;28;20188;-84
2021/06/30 04:34:59;;;;;;;0.60;0.60;;;11.70;99.90;;;;;;5087494;28;20743;-84
2021/06/30 04:37:25;;;;;;;0.70;0.53;;;11.80;99.90;;;;;;5082863;28;20173;-84
2021/06/30 04:39:50;;;;;;;1.37;0.60;;;11.80;99.90;;;;;;5083247;28;20177;-84
2021/06/30 04:42:18;;;;;;;0.70;0.47;;;11.80;99.90;;;;;;5082436;28;20177;-84
2021/06/30 04:44:44;;;;;;;0.87;0.50;;;11.80;99.90;;;;;;5083217;28;20177;-84
2021/06/30 04:47:09;;;;;;;0.63;0.40;;;11.80;99.90;;;;;;5081890;28;20214;-84
2021/06/30 04:49:35;;;;;;;0.50;0.50;;;11.70;99.90;;;;;;5082623;28;20211;-84
2021/06/30 04:52:01;;;;;;;0.33;0.33;;;11.70;99.90;;;;;;5081523;28;20181;-84
2021/06/30 04:54:27;;;;;;;0.40;0.40;;;11.80;99.90;;;;;;5080732;28;20181;-84
2021/06/30 04:56:52;;;;;;;0.63;0.50;;;11.80;99.90;;;;;;5083258;28;20177;-84
2021/06/30 04:59:18;;;;;;;0.50;0.40;;;11.80;99.90;;;;;;5081711;28;20208;-84
2021/06/30 05:01:44;;;;;;;0.70;0.40;;;11.80;99.90;;;;;;5081047;28;20186;-84
2021/06/30 05:04:09;;;;;;;0.77;0.33;;;11.80;99.90;;;;;;5080653;28;20210;-84
2021/06/30 05:06:36;;;;;;;0.80;0.30;;;11.80;99.90;;;;;;5080496;28;20207;-84
2021/06/30 05:09:03;;;;;;;0.40;0.30;;;11.80;99.90;;;;;;5080693;28;20626;-84
2021/06/30 05:11:30;;;;;;;0.50;0.50;;;11.90;99.90;;;;;;5079932;28;20190;-84
2021/06/30 05:13:55;;;;;;;0.87;0.50;;;11.90;99.90;;;;;;5079175;28;20662;-84
2021/06/30 05:16:22;;;;;;;0.67;0.47;;;12.00;99.90;;;;;;5079457;28;20294;-84
2021/06/30 05:18:48;;;;;;;1.47;0.40;;;12.00;99.90;;;;;;5077520;28;20196;-80
2021/06/30 05:21:14;;;;;;;0.70;0.53;;;12.10;99.90;;;;;;5075208;28;20593;-81
2021/06/30 05:23:39;;;;;;;2.83;0.40;;;12.10;99.90;;;;;;5074912;28;20238;-81
2021/06/30 05:26:05;;;;;;;2.93;0.50;;;12.20;99.90;;;;;;5074740;28;20211;-81
2021/06/30 05:28:30;;;;;;;0.87;0.50;;;12.20;99.90;;;;;;5075522;28;20205;-81
2021/06/30 05:30:57;;;;;;;1.03;0.53;;;12.30;99.90;;;;;;5075800;28;20165;-82
2021/06/30 05:33:23;;;;;;;1.13;0.30;;;12.30;99.90;;;;;;5072680;28;20175;-81
2021/06/30 05:35:50;;;;;;;0.40;0.40;;;12.30;99.90;;;;;;5072431;28;20187;-81
2021/06/30 05:38:16;;;;;;;0.63;0.40;;;12.40;99.90;;;;;;5083487;28;20200;-82
2021/06/30 05:40:42;;;;;;;0.50;0.50;;;12.50;99.90;;;;;;5076272;28;20182;-81
2021/06/30 05:43:07;;;;;;;0.40;0.40;;;12.50;99.90;;;;;;5076068;28;20246;-82
2021/06/30 05:45:33;;;;;;;0.73;0.50;;;12.60;99.90;;;;;;5074430;28;20215;-82
2021/06/30 05:47:59;;;;;;;0.40;0.40;;;12.60;99.90;;;;;;5076389;28;20669;-81
2021/06/30 05:50:24;;;;;;;0.70;0.50;;;12.70;99.90;;;;;;5075339;28;20263;-82
2021/06/30 05:52:51;;;;;;;0.67;0.40;;;12.70;99.90;;;;;;5075555;28;20580;-81
2021/06/30 05:55:16;;;;;;;0.53;0.30;;;12.70;99.90;;;;;;5075135;28;20203;-82
2021/06/30 05:57:42;;;;;;;1.60;0.70;;;12.70;99.90;;;;;;5076624;28;20193;-81
2021/06/30 06:00:15;;;;;;;1.83;0.30;;;12.70;99.90;;;;;;5075076;28;20192;-82
2021/06/30 06:02:40;;;;;;;0.57;0.47;;;12.70;99.90;;;;;;5078340;28;20167;-84
2021/06/30 06:05:06;;;;;;;0.47;0.40;;;12.80;99.90;;;;;;5082619;28;20220;-84
2021/06/30 06:07:32;;;;;;;1.70;0.30;;;12.80;99.90;;;;;;5083613;28;20241;-83
2021/06/30 06:09:59;;;;;;;0.70;0.40;;;12.90;99.90;;;;;;5082051;28;20177;-83
2021/06/30 06:12:25;;;;;;;0.30;0.30;;;12.90;99.90;;;;;;5083279;28;20165;-83
2021/06/30 06:14:51;;;;;;;0.80;0.40;;;12.90;99.90;;;;;;5082544;28;20165;-83
2021/06/30 06:17:17;;;;;;;0.30;0.30;;;13.00;99.90;;;;;;5082363;28;20180;-83
2021/06/30 06:19:43;;;;;;;0.53;0.43;;;13.20;99.90;;;;;;5082480;28;20196;-83
2021/06/30 06:22:08;;;;;;;0.50;0.40;;;13.30;99.90;;;;;;5086398;28;20530;-83
2021/06/30 06:24:34;;;;;;;0.43;0.30;;;13.30;99.90;;;;;;5080450;28;20172;-83
2021/06/30 06:27:00;;;;;;;0.40;0.40;;;13.30;99.90;;;;;;5081970;28;20268;-83
2021/06/30 06:29:27;;;;;;;2.93;0.33;;;13.30;99.90;;;;;;5081481;28;20203;-83
2021/06/30 06:31:53;;;;;;;1.00;0.47;;;13.30;99.90;;;;;;5080325;28;20181;-83
2021/06/30 06:34:22;;;;;;;0.77;0.40;;;13.20;99.90;;;;;;5080606;28;20638;-84
2021/06/30 06:36:51;;;;;;;1.13;0.53;;;13.10;99.90;;;;;;5081460;28;20165;-83
2021/06/30 06:39:18;;;;;;;0.50;0.40;;;13.20;99.90;;;;;;5081782;28;20198;-83
2021/06/30 06:41:44;;;;;;;0.40;0.40;;;13.20;99.90;;;;;;5080077;28;20218;-83
2021/06/30 06:44:10;;;;;;;0.30;0.30;;;13.30;99.90;;;;;;5080237;28;20184;-83
2021/06/30 06:46:38;;;;;;;0.47;0.33;;;13.30;99.90;;;;;;5081589;28;20196;-83
2021/06/30 06:49:05;;;;;;;1.23;0.30;;;13.30;99.90;;;;;;5080683;28;20193;-83
2021/06/30 06:51:30;;;;;;;0.30;0.30;;;13.30;99.90;;;;;;5080618;28;20173;-83
2021/06/30 06:53:56;;;;;;;0.60;0.30;;;13.30;99.90;;;;;;5081224;28;20226;-83
2021/06/30 06:56:26;;;;;;;0.50;0.40;;;13.40;99.90;;;;;;5080472;28;20181;-83
2021/06/30 06:58:53;;;;;;;0.83;0.40;;;13.40;99.90;;;;;;5079827;28;20196;-83
2021/06/30 07:01:18;;;;;;;3.80;0.60;;;13.40;99.90;;;;;;5079810;28;20262;-83
2021/06/30 07:03:44;;;;;;;0.40;0.40;;;13.40;99.90;;;;;;5079856;28;20200;-83
2021/06/30 07:06:10;;;;;;;2.73;0.30;;;13.50;99.90;;;;;;5081213;28;20641;-83
2021/06/30 07:08:36;;;;;;;2.17;0.50;;;13.50;99.90;;;;;;5081102;28;20224;-83
2021/06/30 07:11:01;;;;;;;0.30;0.30;;;13.60;99.90;;;;;;5079753;28;20223;-83
2021/06/30 07:13:27;;;;;;;0.50;0.47;;;13.70;99.90;;;;;;5081098;28;20173;-83
2021/06/30 07:15:53;;;;;;;0.30;0.30;;;13.80;99.90;;;;;;5078683;28;20177;-83
2021/06/30 07:18:18;;;;;;;0.37;0.37;;;13.80;99.90;;;;;;5080571;28;20201;-83
2021/06/30 07:20:44;;;;;;;0.87;0.40;;;13.80;99.90;;;;;;5080586;28;20203;-83
2021/06/30 07:23:14;;;;;;;1.00;0.40;;;13.90;99.90;;;;;;5079491;28;20526;-83
2021/06/30 07:25:40;;;;;;;0.40;0.40;;;13.90;99.90;;;;;;5080760;28;20201;-83
2021/06/30 07:28:07;;;;;;;0.83;0.50;;;13.90;99.90;;;;;;5078405;28;20220;-83
2021/06/30 07:30:33;;;;;;;0.83;0.53;;;13.90;99.90;;;;;;5078055;28;20172;-83
2021/06/30 07:32:59;;;;;;;0.60;0.40;;;13.90;99.90;;;;;;5078133;28;20207;-83
2021/06/30 07:35:25;;;;;;;0.63;0.40;;;13.90;99.90;;;;;;5079162;28;20173;-83
2021/06/30 07:37:52;;;;;;;0.40;0.40;;;13.90;99.90;;;;;;5078023;28;20628;-83
2021/06/30 07:40:18;;;;;;;0.87;0.50;;;14.00;99.90;;;;;;5078603;28;20169;-83
2021/06/30 07:42:44;;;;;;;0.57;0.40;;;14.00;99.90;;;;;;5081609;28;20177;-83
2021/06/30 07:45:10;;;;;;;0.40;0.40;;;14.20;99.90;;;;;;5079451;28;20177;-83
2021/06/30 07:47:36;;;;;;;0.40;0.40;;;14.30;99.90;;;;;;5079742;28;20211;-83
2021/06/30 07:50:04;;;;;;;0.40;0.40;;;14.30;99.90;;;;;;5079426;28;20169;-83
2021/06/30 07:52:30;;;;;;;0.30;0.30;;;14.30;99.90;;;;;;5080131;28;20244;-83
2021/06/30 07:54:55;;;;;;;1.40;0.40;;;14.40;99.90;;;;;;5080199;28;20262;-83
2021/06/30 07:57:21;;;;;;;0.40;0.40;;;14.50;99.90;;;;;;5079854;28;20516;-83
2021/06/30 07:59:47;;;;;;;0.67;0.60;;;14.50;99.90;;;;;;5080467;28;20267;-83
2021/06/30 08:02:13;;;;;;;0.30;0.30;;;14.70;99.90;;;;;;5079206;28;20207;-83
2021/06/30 08:04:38;;;;;;;0.97;0.33;;;14.80;99.90;;;;;;5080396;28;20176;-83
2021/06/30 08:07:04;;;;;;;1.47;0.40;;;14.90;99.90;;;;;;5081328;28;20211;-83
2021/06/30 08:09:35;;;;;;;0.30;0.30;;;15.20;99.90;;;;;;5081406;28;20287;-83
2021/06/30 08:12:05;;;;;;;0.30;0.30;;;15.50;99.90;;;;;;5080818;28;20169;-83
2021/06/30 08:14:32;;;;;;;0.47;0.40;;;15.80;99.90;;;;;;5079597;28;20161;-83
2021/06/30 08:16:57;;;;;;;0.40;0.40;;;15.90;99.90;;;;;;5075404;28;20181;-83
2021/06/30 08:19:23;;;;;;;0.50;0.43;;;15.90;99.90;;;;;;5074814;28;20208;-83
2021/06/30 08:21:49;;;;;;;0.80;0.40;;;15.60;99.90;;;;;;5079510;28;20195;-83
2021/06/30 08:24:15;;;;;;;1.03;0.40;;;15.40;99.90;;;;;;5077274;28;20275;-83
2021/06/30 08:26:41;;;;;;;0.43;0.40;;;15.20;99.90;;;;;;5076816;28;20228;-83
2021/06/30 08:29:07;;;;;;;0.40;0.40;;;15.00;99.90;;;;;;5079750;28;20189;-83
2021/06/30 08:31:33;;;;;;;0.57;0.40;;;14.70;99.90;;;;;;5077559;28;20177;-83
2021/06/30 08:33:58;;;;;;;0.30;0.30;;;14.60;99.90;;;;;;5078569;28;20208;-83
2021/06/30 08:36:24;;;;;;;1.40;0.40;;;14.50;99.90;;;;;;5077291;28;20263;-84
2021/06/30 08:38:49;;;;;;;1.97;0.63;;;14.40;99.90;;;;;;5078398;28;20208;-83
2021/06/30 08:41:19;;;;;;;0.50;0.40;;;14.30;99.90;;;;;;5077075;28;20185;-83
2021/06/30 08:43:45;;;;;;;0.37;0.37;;;14.20;99.90;;;;;;5079025;28;20189;-84
2021/06/30 08:46:17;;;;;;;0.57;0.40;;;14.00;99.90;;;;;;5077359;28;20568;-84
2021/06/30 08:48:43;;;;;;;1.67;0.57;;;14.00;99.90;;;;;;5079385;28;20197;-84
2021/06/30 08:51:11;;;;;;;0.40;0.40;;;13.90;99.90;;;;;;5077094;28;20181;-84
2021/06/30 08:53:40;;;;;;;0.60;0.40;;;13.70;99.90;;;;;;5076835;28;20222;-84
2021/06/30 08:56:08;;;;;;;1.23;0.50;;;13.60;99.90;;;;;;5076935;28;20185;-83
2021/06/30 08:58:35;;;;;;;2.83;0.70;;;13.50;99.90;;;;;;5078191;28;20220;-84
2021/06/30 09:01:01;;;;;;;0.50;0.50;;;13.30;99.90;;;;;;5076679;28;20272;-84
2021/06/30 09:03:28;;;;;;;0.97;0.40;;;13.20;99.90;;;;;;5076836;28;20665;-84
2021/06/30 09:08:19;;;;;;;0.47;0.47;;;13.00;99.90;;;;;;5077876;28;20226;-83
2021/06/30 09:10:45;;;;;;;0.30;0.30;;;12.90;99.90;;;;;;5076196;28;20553;-83
2021/06/30 09:13:22;;;;;;;0.50;0.40;;;12.90;99.90;;;;;;5075665;28;20259;-84
2021/06/30 09:15:58;;;;;;;0.87;0.50;;;12.80;99.90;;;;;;5075732;28;20646;-83
2021/06/30 09:18:31;;;;;;;0.70;0.53;;;12.80;99.90;;;;;;5076187;28;20203;-83
2021/06/30 09:21:24;;;;;;;1.77;0.70;;;12.80;99.90;;;;;;5075406;28;20169;-83
2021/06/30 09:24:19;;;;;;;1.00;0.60;;;12.90;99.90;;;;;;5075160;28;20172;-83
2021/06/30 09:26:57;;;;;;;2.20;0.60;;;12.90;99.90;;;;;;5073752;28;20201;-83
2021/06/30 09:29:23;;;;;;;1.00;0.50;;;12.90;99.90;;;;;;5075374;28;20196;-83
2021/06/30 09:31:51;;;;;;;1.90;0.60;;;13.00;99.90;;;;;;5073302;28;20172;-84
2021/06/30 09:34:27;;;;;;;3.97;0.80;;;13.00;99.90;;;;;;5084162;28;20188;-83
2021/06/30 09:37:02;;;;;;;2.90;0.87;;;13.10;99.90;;;;;;5077183;28;20268;-83
2021/06/30 09:39:29;;;;;;;1.10;0.70;;;13.20;99.90;;;;;;5077750;28;20572;-83
2021/06/30 09:42:09;;;;;;;1.40;0.90;;;13.30;99.90;;;;;;5080079;28;20177;-83
2021/06/30 09:44:36;;;;;;;1.37;0.70;;;13.40;99.90;;;;;;5082238;28;20241;-83
2021/06/30 09:47:02;;;;;;;1.10;0.80;;;13.40;99.90;;;;;;5082330;28;20204;-83
2021/06/30 09:49:28;;;;;;;0.97;0.80;;;13.50;99.90;;;;;;5081346;28;20200;-83
2021/06/30 09:52:12;;;;;;;0.87;0.70;;;13.50;99.90;;;;;;5082858;28;20202;-84
2021/06/30 09:54:41;;;;;;;0.97;0.87;;;13.40;99.90;;;;;;5081530;28;20181;-83
2021/06/30 09:57:11;;;;;;;1.77;1.07;;;13.40;99.90;;;;;;5082999;28;20176;-85
2021/06/30 09:59:39;;;;;;;1.57;0.80;;;13.40;99.90;;;;;;5085116;28;20200;-83
2021/06/30 10:02:10;;;;;;;2.60;0.90;;;13.40;99.90;;;;;;5080512;28;20547;-83
2021/06/30 10:04:40;;;;;;;0.80;0.70;;;13.30;99.90;;;;;;5081994;28;20173;-84
2021/06/30 10:07:13;;;;;;;1.40;1.00;;;13.30;99.90;;;;;;5080253;28;20214;-84
2021/06/30 10:10:08;;;;;;;2.07;1.03;;;13.30;99.90;;;;;;5080508;28;20654;-83
2021/06/30 10:12:37;;;;;;;1.10;1.00;;;13.30;99.90;;;;;;5074846;28;20210;-83
2021/06/30 10:15:06;;;;;;;2.00;1.00;;;13.40;99.90;;;;;;5080769;28;20173;-83
2021/06/30 10:17:32;;;;;;;1.17;0.90;;;13.50;99.90;;;;;;5080660;28;20176;-83
2021/06/30 10:20:01;;;;;;;2.43;1.00;;;13.60;99.90;;;;;;5079183;28;20589;-83
2021/06/30 10:22:28;;;;;;;0.70;0.67;;;13.70;99.90;;;;;;5079493;28;20329;-83
2021/06/30 10:24:54;;;;;;;4.20;1.00;;;13.90;99.90;;;;;;5080831;28;20291;-83
2021/06/30 10:27:21;;;;;;;1.83;1.10;;;14.00;99.90;;;;;;5079151;28;20288;-83
2021/06/30 10:30:07;;;;;;;3.13;1.30;;;14.10;99.90;;;;;;5079501;28;20246;-83
2021/06/30 10:32:33;;;;;;;1.60;1.10;;;14.20;99.90;;;;;;5080248;28;20183;-83
2021/06/30 10:35:04;;;;;;;0.80;0.70;;;14.30;99.90;;;;;;5079966;28;20181;-83
2021/06/30 10:37:36;;;;;;;0.83;0.70;;;14.30;99.90;;;;;;5079299;28;20222;-83
2021/06/30 10:40:11;;;;;;;1.20;0.90;;;14.30;99.90;;;;;;5081834;28;20253;-83
2021/06/30 10:42:39;;;;;;;0.80;0.70;;;14.20;99.90;;;;;;5080061;28;20178;-83
2021/06/30 10:45:14;;;;;;;0.80;0.80;;;14.30;99.90;;;;;;5080065;28;20530;-83
2021/06/30 10:47:45;;;;;;;1.00;0.90;;;14.50;99.90;;;;;;5079704;28;20726;-83
2021/06/30 10:50:17;;;;;;;1.03;0.83;;;14.50;99.90;;;;;;5079737;28;20293;-83
2021/06/30 10:52:51;;;;;;;1.03;0.93;;;14.40;99.90;;;;;;5081416;28;20251;-83
2021/06/30 10:55:32;;;;;;;0.60;0.60;;;14.40;99.90;;;;;;5081706;28;20165;-83
2021/06/30 10:58:13;;;;;;;0.90;0.73;;;14.50;99.90;;;;;;5101116;28;20281;-83
2021/06/30 11:00:45;;;;;;;0.60;0.60;;;14.60;99.90;;;;;;5101737;28;20179;-82
2021/06/30 11:03:19;;;;;;;1.80;0.60;;;14.60;99.90;;;;;;5101443;28;20270;-83
2021/06/30 11:05:45;;;;;;;0.60;0.60;;;14.70;99.90;;;;;;5100838;28;20378;-83
2021/06/30 11:08:49;;;;;;;0.93;0.73;;;14.70;99.90;;;;;;5100280;28;20216;-83
2021/06/30 11:11:27;;;;;;;1.27;1.07;;;14.70;99.90;;;;;;5100431;28;20180;-83
2021/06/30 11:14:08;;;;;;;1.27;0.63;;;14.90;99.90;;;;;;5101056;28;20243;-83
2021/06/30 11:16:39;;;;;;;0.90;0.77;;;15.00;99.90;;;;;;5099000;28;20175;-83
2021/06/30 11:19:17;;;;;;;1.17;0.60;;;14.90;99.90;;;;;;5100308;28;20207;-82
2021/06/30 11:21:53;;;;;;;2.30;0.80;;;14.90;99.90;;;;;;5100340;28;20172;-83
2021/06/30 11:24:35;;;;;;;1.00;0.70;;;14.70;99.90;;;;;;5098629;28;20183;-82
2021/06/30 11:27:10;;;;;;;1.87;0.70;;;14.80;99.90;;;;;;5098693;28;20212;-82
2021/06/30 11:29:48;;;;;;;0.90;0.80;;;15.10;99.90;;;;;;5097912;28;20688;-82
2021/06/30 11:32:35;;;;;;;0.70;0.70;;;15.40;99.90;;;;;;5097654;28;20176;-82
2021/06/30 11:35:15;;;;;;;1.00;0.90;;;16.00;99.90;;;;;;5106292;28;20187;-82
2021/06/30 11:37:44;;;;;;;1.10;0.80;;;16.30;99.90;;;;;;5101738;28;20571;-82
2021/06/30 11:40:25;;;;;;;0.87;0.73;;;16.50;99.90;;;;;;5099906;28;20176;-82
2021/06/30 11:42:53;;;;;;;0.60;0.60;;;17.00;99.90;;;;;;5100205;28;20172;-83
2021/06/30 11:45:20;;;;;;;1.27;0.80;;;17.50;99.90;;;;;;5103065;28;20185;-82
2021/06/30 11:47:50;;;;;;;0.77;0.60;;;17.50;99.90;;;;;;5098868;28;20283;-83
2021/06/30 11:50:17;;;;;;;0.60;0.60;;;17.50;99.90;;;;;;5098525;28;20164;-82
2021/06/30 11:52:47;;;;;;;0.93;0.70;;;17.70;99.90;;;;;;5099861;28;20176;-83
2021/06/30 11:55:13;;;;;;;0.80;0.80;;;17.50;99.90;;;;;;5099562;28;20181;-83
2021/06/30 11:57:57;;;;;;;1.03;1.00;;;17.30;99.90;;;;;;5100634;28;20176;-83
2021/06/30 12:00:24;;;;;;;0.97;0.70;;;16.80;99.90;;;;;;5099475;28;20176;-83
2021/06/30 12:02:55;;;;;;;0.80;0.60;;;16.60;99.90;;;;;;5100522;28;20176;-83
2021/06/30 12:05:23;;;;;;;2.20;0.80;;;16.40;99.90;;;;;;5102218;28;20213;-83
2021/06/30 12:07:51;;;;;;;0.70;0.70;;;16.50;99.90;;;;;;5100785;28;20211;-83
2021/06/30 12:10:17;;;;;;;0.60;0.60;;;16.70;99.90;;;;;;5101207;28;20199;-83
2021/06/30 12:12:43;;;;;;;0.60;0.60;;;17.10;99.90;;;;;;5099294;28;20297;-83
2021/06/30 12:15:11;;;;;;;1.00;0.90;;;17.70;99.90;;;;;;5099562;28;20176;-83
2021/06/30 12:17:37;;;;;;;1.23;0.77;;;17.90;99.90;;;;;;5100276;28;20180;-83
2021/06/30 12:20:06;;;;;;;1.00;0.90;;;18.60;99.90;;;;;;5098457;28;20667;-83
2021/06/30 12:22:34;;;;;;;1.43;0.67;;;19.10;99.90;;;;;;5099275;28;20176;-83
2021/06/30 12:25:09;;;;;;;0.90;0.80;;;19.90;99.90;;;;;;5104285;28;20736;-82
2021/06/30 12:27:44;;;;;;;0.63;0.53;;;19.90;99.90;;;;;;5099153;28;20210;-83
2021/06/30 12:30:14;;;;;;;2.03;0.60;;;20.70;99.90;;;;;;5097649;28;20266;-83
2021/06/30 12:32:56;;;;;;;1.43;0.60;;;21.00;99.90;;;;;;5097593;28;20186;-83
2021/06/30 12:35:25;;;;;;;0.50;0.50;;;21.00;99.90;;;;;;5098921;28;20175;-80
2021/06/30 12:37:59;;;;;;;0.50;0.47;;;20.60;99.90;;;;;;5098900;28;20206;-80
2021/06/30 12:40:25;;;;;;;0.80;0.70;;;20.10;99.90;;;;;;5097156;28;20194;-80
2021/06/30 12:43:01;;;;;;;1.77;0.50;;;19.70;99.90;;;;;;5097454;28;20182;-80
2021/06/30 12:45:39;;;;;;;0.60;0.60;;;19.50;99.90;;;;;;5098425;28;20198;-83
2021/06/30 12:48:10;;;;;;;0.60;0.60;;;19.30;99.90;;;;;;5098594;28;20204;-83
2021/06/30 12:50:40;;;;;;;0.63;0.60;;;19.20;99.90;;;;;;5099077;28;20178;-83
2021/06/30 12:53:07;;;;;;;0.50;0.50;;;19.80;99.90;;;;;;5100376;28;20230;-82
2021/06/30 12:56:09;;;;;;;1.93;0.40;;;20.40;99.90;;;;;;5100561;28;20187;-82